Pilot Magazine UKGA

About You

Log In Register UKGA membership

Flight planning

Flight planning New flightplan NOTAM map LARS map & NOTAMs Danger area, mil. & TRA activations Weather map GPS route download Find waypoints Your waypoints New waypoint

Forums

Forums Currently discussing "yoke and pedals forces and behaviour for flight simulator force feedback"

Other items

Articles Events Links News Surveys Tips Other users Feedback UKGA membership About UKGA

TAFs

UK

TAF EGAA 151704Z 1518/1618 13009KT 9999 FEW045 
      BECMG 1607/1610 19010KT
      
TAF EGAC 151704Z 1518/1521 14009KT 9999 FEW045
      
TAF EGAE 151401Z 1515/1518 15011KT 9999 FEW040
      
TAF EGBB 151657Z 1518/1618 08005KT 9999 SCT040 
      TEMPO 1603/1609 6000 PROB30 
      TEMPO 1604/1608 4000 BR
      
TAF EGBJ 151358Z 1515/1519 07008KT 9999 SCT045
      
TAF EGCC 151655Z 1518/1624 VRB03KT 9999 FEW045
      
TAF EGCK 160155Z 1603/1612 15005KT 9999 FEW040= TAF EGHQ 160152Z 1603/1612 08005KT 9999 FEW045
      
TAF EGCN 151654Z 1518/1618 VRB04KT 9999 FEW045 PROB30 
      TEMPO 1603/1606 8000
      
TAF EGDM 151336Z 1515/1518 05008KT 9999 BKN045
      
TAF EGDR 151034Z 1512/1521 09015KT 9999 FEW035
      
TAF EGDY 151051Z 1512/1521 08010KT 9999 SCT040
      
TAF EGEC 150555Z 1506/1510 13007KT 9999 FEW035 PROB30 1506/1507 4000 BR
      
TAF EGFF 151655Z 1518/1618 07006KT 9999 FEW045
      
TAF EGGD 151655Z 1518/1618 05005KT 9999 FEW045 
      TEMPO 1601/1608 6000 PROB30 
      TEMPO 1604/1607 3000 BR BKN004
      
TAF EGGP 152016Z 1518/1618 CNL= TAF LFMI 152000Z 1521/1621 35010KT CAVOK TX15/1614Z TN05/1605Z 
      TEMPO 1617/1621 VRB05KT
      
TAF EGGW 151657Z 1518/1618 03006KT 9999 FEW030 PROB30 
      TEMPO 1518/1519 8000 SHRA BKN014 PROB40 
      TEMPO 1523/1602 7000 
      BECMG 1602/1605 6000 
      TEMPO 1602/1607 3000 BR PROB30 
      TEMPO 1603/1607 0600 FZFG BKN000 
      BECMG 1606/1609 9999
      
TAF EGHC 151711Z 1515/1518 CNL= TAF EVVA 151710Z 1515/1524 CNL
      
TAF EGHE 151359Z 1515/1518 10014KT 9999 FEW020
      
TAF EGHH 152026Z 1518/1521 CNL
      
TAF EGHI 152026Z 1518/1522 CNL
      
TAF EGHQ 151657Z 1518/1603 12008KT 9999 FEW030
      
TAF EGJA 151805Z 1518/1600 CNL
      
TAF EGJB 160202Z 1603/1612 07009KT 9999 FEW020 PROB30 
      TEMPO 1603/1610 BKN015
      
TAF EGJJ 160202Z 1603/1612 07009KT 9999 FEW020 PROB30 
      TEMPO 1603/1610 BKN015
      
TAF EGKA 151403Z 1515/1519 03009KT 9999 SCT040 PROB30 
      TEMPO 1515/1518 8000 SHRA
      
TAF EGKB 151657Z 1518/1522 04006KT 9999 FEW020
      
TAF EGKK 151656Z 1518/1624 03006KT 9999 FEW020 
      TEMPO 1601/1608 7000 PROB30 1602/1607 3000 BR BKN004
      
TAF EGLC 160205Z 1603/1612 05005KT 9999 FEW045 PROB30 1603/1607 8000
      
TAF EGLF 151958Z 1521/1523 02005KT 9999 FEW045
      
TAF EGLL 151700Z 1518/1624 04006KT 9999 SCT040 
      TEMPO 1603/1608 8000
      
TAF EGMC 160205Z 1603/1612 35004KT 9999 FEW045 PROB30 1603/1607 4000 BR BKN004
      
TAF EGMD 160205Z 1603/1612 02006KT 9999 FEW045
      
TAF EGNH 151655Z 1518/1520 36005KT 9999 FEW045
      
TAF EGNJ 160155Z 1603/1612 VRB03KT 9999 FEW040 
      TEMPO 1603/1608 6000 BKN012 PROB40 1603/1607 2000 BR
      
TAF EGNO 150924Z 1509/1518 12004KT 9999 FEW045
      
TAF EGNR 151655Z 1518/1520 13004KT 9999 FEW035
      
TAF EGNS 151700Z 1518/1521 10006KT CAVOK
      
TAF EGNT 151654Z 1518/1618 10007KT CAVOK
      
TAF EGNV 151655Z 1518/1521 08005KT 9999 FEW040
      
TAF EGNX 151657Z 1518/1618 07008KT 9999 SCT040 PROB40 1603/1609 6000 PROB30 
      TEMPO 1604/1608 4000 BR
      
TAF EGOS 151933Z 1521/1602 11005KT CAVOK
      
TAF EGOV 151334Z 1515/1519 32006KT 9999 FEW040
      
TAF EGPA 160153Z 1603/1612 16009KT 9999 FEW015 PROB30 
      TEMPO 1603/1609 17015G25KT
      
TAF EGPB 160153Z 1603/1612 17012KT 9999 FEW020 PROB30 
      TEMPO 1606/1612 18017G27KT
      
TAF EGPC 160153Z 1603/1612 15012KT 9999 FEW015 PROB30 
      TEMPO 1603/1609 16015G25KT
      
TAF EGPD 151655Z 1518/1618 15008KT 9999 FEW040 PROB40 1600/1607 3000 BR BKN006
      
TAF EGPE 160153Z 1603/1612 22006KT 9999 FEW020
      
TAF EGPF 151655Z 1518/1618 24006KT 9999 FEW040 PROB30 1600/1607 3000 BR
      
TAF EGPH 151655Z 1518/1618 05010KT 9999 FEW040 
      BECMG 1518/1521 23003KT PROB30 1600/1607 4000 BR
      
TAF EGPI 160154Z 1603/1612 14012KT 9999 FEW020 PROB30 
      TEMPO 1603/1612 16015G25KT
      
TAF AMD EGPK 152125Z 1521/1618 12005KT 9999 FEW040 PROB40 1521/1607 8000 
      BECMG 1609/1612 24010KT
      
TAF EGPL 160153Z 1603/1612 17014KT 9999 SCT030 PROB40 
      TEMPO 1603/1612 18018G28KT PROB40 
      TEMPO 1610/1612 7000 -RA BKN013
      
TAF AMD EGPN 151608Z 1516/1517 CNL
      
TAF EGPO 160153Z 1603/1612 17009KT 9999 FEW025 PROB40 
      TEMPO 1603/1612 18015G28KT
      
TAF EGPU 151359Z 1515/1518 16014KT CAVOK PROB30 
      TEMPO 1515/1518 17017G27KT
      
TAF EGQL 160102Z 1603/1612 VRB04KT CAVOK PROB30 1603/1606 4000 BR
      
TAF EGQS 160115Z 1603/1621 14004KT CAVOK
      
TAF EGSC 151401Z 1515/1519 06012KT 9999 SCT040 PROB30 
      TEMPO 1515/1518 8000 SHRA
      
TAF EGSH 160155Z 1603/1612 35005KT 0300 FG SCT001 
      TEMPO 1603/1606 3000 BR BKN003 
      BECMG 1606/1609 9999 NSW 
      BECMG 1609/1612 05010KT
      
TAF AMD EGSS 160148Z 1601/1706 04006KT 9999 FEW030 
      TEMPO 1601/1608 5000 BR PROB40 1602/1607 0300 FZFG BKN000
      
TAF EGSY 151104Z 1512/1516 09009KT 9999 FEW025
      
TAF EGTC 151959Z 1521/1523 06006KT CAVOK
      
TAF EGTE 152154Z 1521/1604 VRB02KT CAVOK
      
TAF EGTK 151657Z 1518/1522 03006KT 9999 FEW040
      
TAF EGUB 151925Z 1521/1602 03008KT CAVOK PROB40 1600/1602 4000 BR MIFG
      
TAF AMD EGUL 152100Z 1521/1702 02009KT 9999 SCT040 BKN075 QNH3048INS 
      BECMG 1523/1524 05009KT 6000 BR BKN020 QNH3048INS 
      TEMPO 1603/1606 3200 BR BKN010 
      BECMG 1610/1611 05009KT 9999 NSW SCT030 QNH3043INS 
      BECMG 1623/1624 08009KT 6000 BR BKN025 QNH3048INS TX10/1614Z TN00/1605Z LAST NO 
      AMDS AFT 1521 NEXT 1604
      
TAF AMD EGUN 160129Z 1601/1702 05009KT 9999 FEW020 QNH3044INS 
      BECMG 1603/1604 03006KT 3200 BR SCT040 QNH3048INS 
      BECMG 1607/1608 05009KT 9999 NSW FEW040 QNH3044INS TX11/1614Z TNM01/1601Z
      
TAF EGUW 152255Z 1521/1602 CNL= TAF EPDA 152300Z 1600/1609 03010KT CAVOK 
      TEMPO 1600/1609 BKN040
      
TAF EGVA 160300Z 1603/1709 04006KT 9999 SCT020 QNH3044INS 
      TEMPO 1604/1608 5000 BR BKN005 
      BECMG 1608/1609 06006KT 9999 SCT040 QNH3043INS 
      BECMG 1612/1613 06012KT 9999 SCT050 QNH3040INS 
      BECMG 1622/1623 VRB06KT 9999 SCT050 QNH3042INS TX10/1614Z TN01/1603Z
      
TAF EGVN 160143Z 1603/1703 05006KT 9999 FEW045 PROB30 1604/1608 4000 BR
      
TAF EGVO 151938Z 1521/1609 07004KT 9999 SCT040 PROB40 1600/1608 5000 BR
      
TAF EGVP 151042Z 1512/1517 06008KT 9999 SCT045
      
TAF EGWU 152147Z 1521/1615 CNL= TAF LFOJ 152147Z 1521/1621 CNL
      
TAF EGXC 160150Z 1603/1621 33005KT 9999 FEW030 PROB40 1603/1608 4000 BR PROB30 1603/1607 2000 BR MIFG PROB30 
      TEMPO 1607/1610 SCT022
      
TAF EGXE 151343Z 1515/1518 05005KT CAVOK
      
TAF AMD EGXP 151035Z 1509/1518 CNL
      
TAF EGXT 151343Z 1515/1518 02007KT 9999 BKN040
      
TAF EGXW 151932Z 1521/1615 06004KT CAVOK PROB30 1603/1608 5000 BR
      
TAF EGYD 151326Z 1515/1518 07010KT 9999 FEW040
      
TAF COR EGYM 151938Z 1521/1524 03005KT 9999 FEW022 PROB30 1521/1522 SCT022 PROB30 1522/1524 7000 HZ SCT022
      
TAF EGYP 160135Z 1603/1621 35020G30KT CAVOK 520003 PROB40 
      TEMPO 1603/1611 36032G44KT 530003 PROB30 
      TEMPO 1603/1612 VRB05KT SCT007 560003 
      BECMG 1610/1612 30020G30KT 50//// 
      BECMG 1614/1617 27025G35KT PROB40 
      TEMPO 1617/1621 26030G45KT
      

About You

Log In Register UKGA membership

Airfields

Interactive airfield map Search by name Search by postcode Search by location Fuel prices Pilot reviews Latest
(No favourites selected)

Flight planning

Flight planning New flightplan NOTAM map LARS map & NOTAMs Danger area, mil. & TRA activations Weather map GPS route download Find waypoints Your waypoints New waypoint

Forums

Forums Currently discussing "yoke and pedals forces and behaviour for flight simulator force feedback"

Other items

Articles Events Links News Surveys Tips Other users Feedback UKGA membership About UKGA